createdAt,value
2022-10-13T00:00:23.946Z,11.00
2022-10-13T00:02:50.979Z,11.43
2022-10-13T00:05:20.762Z,10.82
2022-10-13T00:07:47.770Z,11.73
2022-10-13T00:10:15.955Z,10.45
2022-10-13T00:12:42.968Z,11.88
2022-10-13T00:15:12.070Z,11.30
2022-10-13T00:17:39.109Z,10.93
2022-10-13T00:20:06.710Z,10.77
2022-10-13T00:22:33.814Z,10.60
2022-10-13T00:25:00.866Z,11.25
2022-10-13T00:27:27.903Z,11.03
2022-10-13T00:29:56.975Z,10.80
2022-10-13T00:32:24.125Z,11.05
2022-10-13T00:34:51.197Z,10.98
2022-10-13T00:37:18.311Z,11.00
2022-10-13T00:39:45.397Z,11.02
2022-10-13T00:42:13.567Z,11.15
2022-10-13T00:45:03.176Z,11.10
2022-10-13T00:47:53.535Z,11.10
2022-10-13T00:50:22.957Z,10.82
2022-10-13T00:52:50.780Z,11.38
2022-10-13T00:55:21.269Z,10.82
2022-10-13T00:57:54.453Z,11.02
2022-10-13T01:00:22.833Z,11.20
2022-10-13T01:02:49.898Z,11.38
2022-10-13T01:05:17.496Z,11.30
2022-10-13T01:07:48.696Z,10.65
2022-10-13T01:10:26.342Z,11.20
2022-10-13T01:12:56.223Z,11.13
2022-10-13T01:15:28.545Z,10.80
2022-10-13T01:18:14.439Z,11.05
2022-10-13T01:21:00.457Z,11.57
2022-10-13T01:23:45.682Z,11.07
2022-10-13T01:26:15.530Z,11.17
2022-10-13T01:29:01.302Z,11.65
2022-10-13T01:31:34.412Z,11.38
2022-10-13T01:34:20.120Z,11.38
2022-10-13T01:37:06.061Z,11.70
2022-10-13T01:39:38.987Z,11.68
2022-10-13T01:42:12.869Z,11.50
2022-10-13T01:44:41.719Z,11.35
2022-10-13T01:47:15.760Z,11.85
2022-10-13T01:49:43.310Z,11.70
2022-10-13T01:52:13.459Z,11.77
2022-10-13T01:54:40.544Z,12.13
2022-10-13T01:57:27.580Z,11.52
2022-10-13T01:59:54.583Z,11.32
2022-10-13T02:02:35.370Z,12.05
2022-10-13T02:05:05.402Z,12.10
2022-10-13T02:07:39.461Z,12.07
2022-10-13T02:10:16.563Z,11.43
2022-10-13T02:12:47.347Z,11.68
2022-10-13T02:15:17.373Z,11.82
2022-10-13T02:17:44.906Z,11.63
2022-10-13T02:20:12.203Z,11.73
2022-10-13T02:22:42.228Z,11.80
2022-10-13T02:25:09.607Z,11.65
2022-10-13T02:27:38.863Z,11.90
2022-10-13T02:30:07.843Z,11.57
2022-10-13T02:32:37.186Z,11.67
2022-10-13T02:35:06.351Z,11.68
2022-10-13T02:37:33.630Z,11.63
2022-10-13T02:40:00.745Z,11.98
2022-10-13T02:42:27.750Z,11.48
2022-10-13T02:45:02.143Z,11.93
2022-10-13T02:47:30.281Z,12.10
2022-10-13T02:49:57.283Z,10.98
2022-10-13T02:52:25.752Z,11.23
2022-10-13T02:54:52.855Z,11.25
2022-10-13T02:57:19.888Z,10.52
2022-10-13T02:59:46.902Z,10.40
2022-10-13T03:02:14.098Z,11.23
2022-10-13T03:04:41.103Z,10.75
2022-10-13T03:07:10.490Z,10.68
2022-10-13T03:09:37.596Z,10.73
2022-10-13T03:12:05.023Z,10.88
2022-10-13T03:14:32.046Z,11.38
2022-10-13T03:16:59.035Z,11.25
2022-10-13T03:19:28.826Z,10.75
2022-10-13T03:21:55.878Z,10.98
2022-10-13T03:24:23.158Z,10.95
2022-10-13T03:26:51.449Z,11.43
2022-10-13T03:29:22.208Z,10.80
2022-10-13T03:31:49.814Z,10.98
2022-10-13T03:34:17.519Z,10.43
2022-10-13T03:36:44.541Z,11.02
2022-10-13T03:39:11.639Z,10.43
2022-10-13T03:41:38.652Z,10.50
2022-10-13T03:44:06.121Z,10.75
2022-10-13T03:46:33.129Z,10.60
2022-10-13T03:49:03.026Z,10.68
2022-10-13T03:51:30.088Z,10.25
2022-10-13T03:53:57.486Z,10.30
2022-10-13T03:56:29.090Z,10.43
2022-10-13T04:01:38.554Z,9.68
2022-10-13T04:04:07.387Z,9.93
2022-10-13T04:06:40.565Z,9.88
2022-10-13T04:09:07.863Z,10.70
2022-10-13T04:11:34.928Z,10.02
2022-10-13T04:14:02.002Z,10.70
2022-10-13T04:16:30.033Z,10.50
2022-10-13T04:18:58.547Z,10.30
2022-10-13T04:21:26.144Z,10.30
2022-10-13T04:23:58.662Z,10.20
2022-10-13T04:26:27.440Z,10.68
2022-10-13T04:28:58.205Z,10.27
2022-10-13T04:31:28.032Z,10.27
2022-10-13T04:33:55.380Z,10.20
2022-10-13T04:36:31.599Z,10.38
2022-10-13T04:38:58.628Z,10.93
2022-10-13T04:41:26.035Z,10.40
2022-10-13T04:43:57.622Z,10.55
2022-10-13T04:46:26.392Z,11.02
2022-10-13T04:48:54.732Z,10.90
2022-10-13T04:51:22.983Z,11.23
2022-10-13T04:53:56.766Z,10.63
2022-10-13T04:56:26.081Z,10.57
2022-10-13T04:58:53.148Z,11.70
2022-10-13T05:01:22.607Z,11.27
2022-10-13T05:03:57.263Z,10.80
2022-10-13T05:06:25.541Z,10.63
2022-10-13T05:08:53.092Z,11.20
2022-10-13T05:11:20.511Z,11.40
2022-10-13T05:13:47.924Z,11.27
2022-10-13T05:16:15.696Z,11.80
2022-10-13T05:18:42.871Z,11.40
2022-10-13T05:21:14.176Z,11.95
2022-10-13T05:23:41.902Z,11.45
2022-10-13T05:28:52.480Z,11.32
2022-10-13T05:31:20.950Z,11.90
2022-10-13T05:33:48.768Z,12.10
2022-10-13T05:36:16.250Z,11.82
2022-10-13T05:38:43.652Z,11.80
2022-10-13T05:41:11.892Z,11.95
2022-10-13T05:43:42.815Z,12.18
2022-10-13T05:46:13.090Z,11.75
2022-10-13T05:48:40.164Z,11.90
2022-10-13T05:51:08.805Z,12.35
2022-10-13T05:53:39.911Z,12.88
2022-10-13T05:56:09.212Z,11.85
2022-10-13T05:58:39.733Z,12.65
2022-10-13T06:01:11.654Z,12.20
2022-10-13T06:03:39.870Z,12.13
2022-10-13T06:06:15.073Z,12.55
2022-10-13T06:08:42.770Z,12.95
2022-10-13T06:11:10.117Z,12.98
2022-10-13T06:13:37.222Z,12.80
2022-10-13T06:16:07.278Z,12.43
2022-10-13T06:18:34.310Z,12.63
2022-10-13T06:21:01.365Z,12.95
2022-10-13T06:23:28.384Z,12.75
2022-10-13T06:25:58.160Z,12.55
2022-10-13T06:28:28.150Z,13.45
2022-10-13T06:30:58.190Z,13.23
2022-10-13T06:33:25.728Z,13.70
2022-10-13T06:35:54.324Z,14.15
2022-10-13T06:38:21.374Z,13.50
2022-10-13T06:40:48.721Z,13.80
2022-10-13T06:43:15.782Z,14.32
2022-10-13T06:45:43.116Z,14.38
2022-10-13T06:48:10.259Z,13.40
2022-10-13T06:50:42.048Z,14.25
2022-10-13T06:53:09.849Z,14.45
2022-10-13T06:55:36.903Z,13.93
2022-10-13T06:58:03.938Z,14.40
2022-10-13T07:00:30.995Z,14.45
2022-10-13T07:02:58.037Z,14.25
2022-10-13T07:05:25.052Z,14.50
2022-10-13T07:07:56.117Z,14.00
2022-10-13T07:10:23.190Z,14.15
2022-10-13T07:12:50.301Z,14.68
2022-10-13T07:15:17.409Z,14.23
2022-10-13T07:17:44.516Z,15.00
2022-10-13T07:20:12.476Z,14.38
2022-10-13T07:22:39.579Z,14.90
2022-10-13T07:25:06.914Z,14.30
2022-10-13T07:27:34.124Z,14.30
2022-10-13T07:30:02.643Z,14.45
2022-10-13T07:32:29.761Z,14.10
2022-10-13T07:34:58.093Z,13.90
2022-10-13T07:37:26.170Z,14.20
2022-10-13T07:39:53.341Z,14.53
2022-10-13T07:42:20.393Z,14.70
2022-10-13T07:44:47.867Z,14.55
2022-10-13T07:47:14.955Z,14.15
2022-10-13T07:49:42.058Z,14.38
2022-10-13T07:52:09.172Z,14.10
2022-10-13T07:54:36.252Z,14.63
2022-10-13T07:57:03.266Z,14.15
2022-10-13T07:59:34.191Z,14.63
2022-10-13T08:02:01.773Z,14.15
2022-10-13T08:04:33.577Z,13.57
2022-10-13T08:07:00.735Z,13.77
2022-10-13T08:09:27.813Z,14.52
2022-10-13T08:11:58.914Z,14.35
2022-10-13T08:14:30.803Z,13.50
2022-10-13T08:16:58.304Z,14.70
2022-10-13T08:19:26.549Z,13.63
2022-10-13T08:21:58.871Z,14.35
2022-10-13T08:24:27.326Z,13.23
2022-10-13T08:26:56.643Z,13.18
2022-10-13T08:29:24.336Z,13.68
2022-10-13T08:31:53.214Z,13.50
2022-10-13T08:34:20.926Z,13.57
2022-10-13T08:36:48.715Z,12.82
2022-10-13T08:39:15.822Z,13.68
2022-10-13T08:41:44.332Z,13.18
2022-10-13T08:47:18.942Z,12.98
2022-10-13T08:49:46.259Z,12.18
2022-10-13T08:52:26.111Z,12.57
2022-10-13T08:54:54.510Z,13.02
2022-10-13T08:57:22.329Z,13.10
2022-10-13T08:59:49.859Z,12.73
2022-10-13T09:02:24.910Z,13.05
2022-10-13T09:04:56.157Z,12.75
2022-10-13T09:07:30.226Z,13.27
2022-10-13T09:09:57.328Z,13.70
2022-10-13T09:12:25.096Z,13.35
2022-10-13T09:15:01.266Z,13.45
2022-10-13T09:17:31.331Z,13.82
2022-10-13T09:19:58.303Z,13.05
2022-10-13T09:22:26.615Z,14.02
2022-10-13T09:25:13.958Z,13.70
2022-10-13T09:27:47.751Z,13.00
2022-10-13T09:30:28.047Z,13.02
2022-10-13T09:33:04.413Z,13.02
2022-10-13T09:35:37.334Z,13.25
2022-10-13T09:38:05.061Z,12.98
2022-10-13T09:40:32.345Z,12.90
2022-10-13T09:43:00.583Z,12.55
2022-10-13T09:45:30.323Z,12.47
2022-10-13T09:48:03.678Z,12.85
2022-10-13T09:50:31.981Z,13.13
2022-10-13T09:53:11.060Z,13.15
2022-10-13T09:55:40.836Z,12.65
2022-10-13T09:58:13.025Z,12.70
2022-10-13T10:00:42.684Z,12.50
2022-10-13T10:03:15.664Z,12.10
2022-10-13T10:05:46.935Z,12.85
2022-10-13T10:09:01.586Z,13.05
2022-10-13T10:11:29.164Z,13.02
2022-10-13T10:13:59.428Z,14.00
2022-10-13T10:16:36.840Z,12.65
2022-10-13T10:19:06.879Z,12.88
2022-10-13T10:21:39.084Z,12.85
2022-10-13T10:24:06.089Z,12.80
2022-10-13T10:26:45.013Z,13.07
2022-10-13T10:29:23.832Z,12.63
2022-10-13T10:32:03.955Z,13.15
2022-10-13T10:34:50.422Z,13.15
2022-10-13T10:37:22.955Z,13.60
2022-10-13T10:40:05.271Z,12.65
2022-10-13T10:42:51.120Z,12.52
2022-10-13T10:45:21.507Z,12.82
2022-10-13T10:47:51.212Z,12.88
2022-10-13T10:50:19.357Z,12.52
2022-10-13T10:52:58.214Z,12.55
2022-10-13T10:55:28.044Z,12.33
2022-10-13T10:57:57.863Z,12.13
2022-10-13T11:03:15.596Z,12.20
2022-10-13T11:06:00.761Z,12.25
2022-10-13T11:08:43.958Z,12.05
2022-10-13T11:11:26.677Z,12.30
2022-10-13T11:13:56.776Z,13.20
2022-10-13T11:16:32.497Z,13.10
2022-10-13T11:19:05.352Z,12.15
2022-10-13T11:21:53.986Z,12.68
2022-10-13T11:24:39.864Z,12.20
2022-10-13T11:27:10.607Z,12.98
2022-10-13T11:29:47.545Z,12.25
2022-10-13T11:32:32.880Z,12.15
2022-10-13T11:35:01.549Z,12.47
2022-10-13T11:38:05.749Z,13.25
2022-10-13T11:40:52.340Z,12.32
2022-10-13T11:43:44.394Z,11.48
2022-10-13T11:46:27.451Z,12.30
2022-10-13T11:48:57.261Z,12.30
2022-10-13T11:51:30.111Z,12.00
2022-10-13T11:53:57.115Z,12.20
2022-10-13T11:56:33.214Z,11.90
2022-10-13T11:59:01.312Z,11.70
2022-10-13T12:01:28.445Z,11.90
2022-10-13T12:03:55.671Z,11.95
2022-10-13T12:06:33.086Z,11.35
2022-10-13T12:09:26.467Z,11.68
2022-10-13T12:11:58.143Z,11.63
2022-10-13T12:14:30.189Z,12.00
2022-10-13T12:16:58.438Z,11.32
2022-10-13T12:19:26.780Z,11.65
2022-10-13T12:21:55.702Z,11.48
2022-10-13T12:24:26.792Z,11.57
2022-10-13T12:26:54.132Z,11.15
2022-10-13T12:29:23.912Z,11.13
2022-10-13T12:31:51.660Z,11.90
2022-10-13T12:34:18.732Z,12.20
2022-10-13T12:36:46.732Z,11.07
2022-10-13T12:39:14.708Z,10.95
2022-10-13T12:41:43.841Z,11.37
2022-10-13T12:44:15.699Z,11.30
2022-10-13T12:46:44.448Z,11.48
2022-10-13T12:52:02.036Z,11.40
2022-10-13T12:54:33.921Z,11.10
2022-10-13T12:57:02.791Z,11.30
2022-10-13T12:59:31.490Z,11.10
2022-10-13T13:02:03.030Z,11.15
2022-10-13T13:04:32.581Z,11.20
2022-10-13T13:07:00.752Z,11.40
2022-10-13T13:09:39.091Z,12.65
2022-10-13T13:12:09.057Z,12.35
2022-10-13T13:14:43.058Z,12.57
2022-10-13T13:17:27.663Z,12.30
2022-10-13T13:20:18.966Z,11.95
2022-10-13T13:22:46.032Z,12.52
2022-10-13T13:25:13.060Z,13.20
2022-10-13T13:27:40.961Z,12.90
2022-10-13T13:30:12.049Z,12.75
2022-10-13T13:32:41.331Z,13.68
2022-10-13T13:35:11.431Z,13.15
2022-10-13T13:37:40.648Z,13.70
2022-10-13T13:40:08.628Z,14.13
2022-10-13T13:42:35.714Z,14.20
2022-10-13T13:45:02.778Z,14.10
2022-10-13T13:47:29.832Z,13.63
2022-10-13T13:50:00.770Z,13.73
2022-10-13T13:52:30.609Z,15.32
2022-10-13T13:55:04.559Z,14.48
2022-10-13T13:57:31.571Z,14.80
2022-10-13T13:59:59.237Z,15.30
2022-10-13T14:02:29.047Z,15.18
2022-10-13T14:04:56.075Z,14.93
2022-10-13T14:07:23.452Z,15.60
2022-10-13T14:09:50.705Z,15.87
2022-10-13T14:12:19.625Z,15.20
2022-10-13T14:14:46.804Z,15.68
2022-10-13T14:17:17.088Z,14.57
2022-10-13T14:19:44.129Z,15.57
2022-10-13T14:22:13.242Z,15.38
2022-10-13T14:24:40.224Z,16.23
2022-10-13T14:27:10.059Z,16.43
2022-10-13T14:29:37.508Z,16.45
2022-10-13T14:32:04.795Z,17.10
2022-10-13T14:34:33.440Z,17.73
2022-10-13T14:37:00.555Z,17.23
2022-10-13T14:39:27.680Z,16.80
2022-10-13T14:41:57.797Z,17.58
2022-10-13T14:44:24.793Z,17.83
2022-10-13T14:46:51.799Z,18.08
2022-10-13T14:49:18.869Z,17.63
2022-10-13T14:51:49.047Z,16.60
2022-10-13T14:54:16.103Z,17.13
2022-10-13T14:56:46.982Z,17.48
2022-10-13T14:59:14.209Z,16.10
2022-10-13T15:01:41.908Z,16.35
2022-10-13T15:04:09.256Z,16.92
2022-10-13T15:06:39.010Z,16.73
2022-10-13T15:09:06.627Z,16.40
2022-10-13T15:11:33.645Z,15.98
2022-10-13T15:14:00.655Z,15.98
2022-10-13T15:16:29.342Z,16.17
2022-10-13T15:18:57.012Z,17.00
2022-10-13T15:21:25.567Z,16.73
2022-10-13T15:23:52.663Z,17.38
2022-10-13T15:26:23.276Z,16.63
2022-10-13T15:28:51.379Z,16.52
2022-10-13T15:31:19.495Z,17.50
2022-10-13T15:33:47.400Z,17.30
2022-10-13T15:36:14.458Z,16.90
2022-10-13T15:38:43.849Z,16.40
2022-10-13T15:41:11.600Z,17.65
2022-10-13T15:43:40.320Z,17.15
2022-10-13T15:46:08.643Z,17.48
2022-10-13T15:48:38.418Z,17.80
2022-10-13T15:51:15.722Z,17.35
2022-10-13T15:53:42.811Z,17.85
2022-10-13T15:56:09.860Z,18.38
2022-10-13T15:58:37.284Z,17.98
2022-10-13T16:01:11.314Z,18.67
2022-10-13T16:03:38.856Z,18.75
2022-10-13T16:06:07.390Z,18.47
2022-10-13T16:08:41.121Z,18.88
2022-10-13T16:11:12.505Z,20.27
2022-10-13T16:13:40.185Z,19.83
2022-10-13T16:16:10.282Z,19.80
2022-10-13T16:18:39.610Z,19.70
2022-10-13T16:21:18.336Z,19.48
2022-10-13T16:23:48.971Z,19.92
2022-10-13T16:26:17.458Z,19.58
2022-10-13T16:28:44.933Z,19.95
2022-10-13T16:31:14.717Z,20.33
2022-10-13T16:33:42.803Z,21.70
2022-10-13T16:36:10.904Z,20.38
2022-10-13T16:38:38.180Z,21.80
2022-10-13T16:41:06.190Z,21.63
2022-10-13T16:43:33.271Z,21.58
2022-10-13T16:46:01.568Z,22.17
2022-10-13T16:48:28.618Z,22.48
2022-10-13T16:50:58.831Z,22.63
2022-10-13T16:53:25.807Z,22.10
2022-10-13T16:55:55.625Z,22.20
2022-10-13T16:58:22.637Z,22.07
2022-10-13T17:00:49.683Z,22.85
2022-10-13T17:03:16.834Z,23.17
2022-10-13T17:05:43.824Z,22.40
2022-10-13T17:08:13.720Z,22.88
2022-10-13T17:10:40.764Z,23.52
2022-10-13T17:13:07.796Z,22.83
2022-10-13T17:15:34.849Z,23.33
2022-10-13T17:18:01.933Z,23.27
2022-10-13T17:20:28.949Z,23.10
2022-10-13T17:22:55.932Z,22.10
2022-10-13T17:25:23.017Z,22.38
2022-10-13T17:27:50.031Z,22.77
2022-10-13T17:30:17.083Z,22.38
2022-10-13T17:32:44.107Z,23.42
2022-10-13T17:35:14.318Z,23.40
2022-10-13T17:37:41.309Z,23.20
2022-10-13T17:40:11.119Z,23.08
2022-10-13T17:42:38.458Z,24.23
2022-10-13T17:45:05.641Z,24.53
2022-10-13T17:47:32.804Z,24.33
2022-10-13T17:49:59.858Z,25.35
2022-10-13T17:52:26.894Z,26.02
2022-10-13T17:54:55.724Z,25.80
2022-10-13T17:57:23.103Z,24.95
2022-10-13T17:59:53.443Z,25.77
2022-10-13T18:02:21.674Z,25.50
2022-10-13T18:04:48.680Z,26.15
2022-10-13T18:07:15.738Z,25.92
2022-10-13T18:09:45.840Z,26.58
2022-10-13T18:12:12.816Z,27.83
2022-10-13T18:14:39.828Z,28.33
2022-10-13T18:17:06.843Z,28.60
2022-10-13T18:19:39.266Z,28.47
2022-10-13T18:22:07.264Z,28.40
2022-10-13T18:24:34.299Z,29.27
2022-10-13T18:27:01.532Z,29.80
2022-10-13T18:29:28.621Z,28.33
2022-10-13T18:31:58.679Z,28.88
2022-10-13T18:34:25.723Z,27.65
2022-10-13T18:36:56.199Z,26.80
2022-10-13T18:39:25.694Z,28.23
2022-10-13T18:41:53.591Z,27.60
2022-10-13T18:44:20.997Z,27.93
2022-10-13T18:46:51.364Z,28.77
2022-10-13T18:49:20.512Z,30.27
2022-10-13T18:51:49.904Z,30.23
2022-10-13T18:54:16.983Z,30.48
2022-10-13T18:56:44.066Z,32.47
2022-10-13T18:59:11.304Z,32.15
2022-10-13T19:01:39.526Z,31.83
2022-10-13T19:04:06.981Z,32.20
2022-10-13T19:06:34.037Z,31.70
2022-10-13T19:09:08.562Z,31.75
2022-10-13T19:11:38.779Z,30.92
2022-10-13T19:14:06.952Z,31.77
2022-10-13T19:16:36.354Z,31.15
2022-10-13T19:19:03.717Z,32.90
2022-10-13T19:21:34.188Z,33.95
2022-10-13T19:24:01.379Z,34.25
2022-10-13T19:26:29.782Z,33.22
2022-10-13T19:28:58.135Z,33.60
2022-10-13T19:31:26.004Z,34.10
2022-10-13T19:33:53.293Z,33.85
2022-10-13T19:36:32.346Z,34.85
2022-10-13T19:39:00.361Z,34.33
2022-10-13T19:41:28.244Z,34.30
2022-10-13T19:43:55.602Z,34.42
2022-10-13T19:46:22.630Z,33.35
2022-10-13T19:48:49.636Z,35.25
2022-10-13T19:51:16.645Z,37.60
2022-10-13T19:53:43.717Z,35.47
2022-10-13T19:56:21.364Z,33.90
2022-10-13T19:58:48.428Z,33.70
2022-10-13T20:01:18.946Z,31.50
2022-10-13T20:03:46.750Z,32.75
2022-10-13T20:06:14.149Z,32.67
2022-10-13T20:08:42.831Z,33.45
2022-10-13T20:11:10.998Z,33.97
2022-10-13T20:13:38.275Z,33.45
2022-10-13T20:16:09.610Z,33.65
2022-10-13T20:18:37.326Z,33.55
2022-10-13T20:21:05.769Z,34.42
2022-10-13T20:23:33.046Z,34.70
2022-10-13T20:26:03.880Z,33.45
2022-10-13T20:28:31.043Z,33.25
2022-10-13T20:30:58.426Z,36.57
2022-10-13T20:33:30.588Z,35.43
2022-10-13T20:36:01.072Z,36.17
2022-10-13T20:38:29.783Z,35.30
2022-10-13T20:41:06.852Z,36.47
2022-10-13T20:43:34.447Z,36.65
2022-10-13T20:46:02.381Z,36.00
2022-10-13T20:48:51.106Z,37.50
2022-10-13T20:51:22.104Z,38.10
2022-10-13T20:53:49.279Z,38.13
2022-10-13T20:56:21.238Z,38.65
2022-10-13T20:58:51.060Z,38.80
2022-10-13T21:01:19.406Z,39.30
2022-10-13T21:03:46.699Z,39.85
2022-10-13T21:06:14.578Z,40.00
2022-10-13T21:08:41.766Z,40.00
2022-10-13T21:11:15.626Z,39.00
2022-10-13T21:13:43.443Z,39.60
2022-10-13T21:16:19.791Z,40.75
2022-10-13T21:18:50.531Z,41.08
2022-10-13T21:21:19.174Z,41.33
2022-10-13T21:23:51.747Z,40.38
2022-10-13T21:26:34.475Z,40.03
2022-10-13T21:29:01.709Z,39.10
2022-10-13T21:31:29.245Z,38.50
2022-10-13T21:34:05.114Z,37.90
2022-10-13T21:36:45.239Z,38.28
2022-10-13T21:39:20.683Z,38.10
2022-10-13T21:41:49.936Z,38.30
2022-10-13T21:44:21.440Z,37.28
2022-10-13T21:46:48.465Z,37.90
2022-10-13T21:49:15.563Z,38.53
2022-10-13T21:54:24.914Z,38.65
2022-10-13T21:56:52.022Z,38.27
2022-10-13T21:59:23.402Z,38.80
2022-10-13T22:01:57.940Z,37.50
2022-10-13T22:04:29.860Z,38.97
2022-10-13T22:06:59.217Z,38.75
2022-10-13T22:09:26.484Z,37.97
2022-10-13T22:11:56.518Z,37.67
2022-10-13T22:14:23.882Z,38.60
2022-10-13T22:16:54.699Z,38.70
2022-10-13T22:19:22.698Z,37.78
2022-10-13T22:21:50.346Z,39.05
2022-10-13T22:24:20.978Z,39.47
2022-10-13T22:26:48.621Z,39.40
2022-10-13T22:29:17.653Z,39.95
2022-10-13T22:31:44.696Z,39.40
2022-10-13T22:34:12.896Z,39.22
2022-10-13T22:36:44.417Z,39.60
2022-10-13T22:39:11.996Z,38.70
2022-10-13T22:41:39.039Z,40.80
2022-10-13T22:44:06.052Z,40.10
2022-10-13T22:46:34.548Z,41.03
2022-10-13T22:49:08.232Z,42.00
2022-10-13T22:51:36.110Z,40.28
2022-10-13T22:54:03.549Z,40.67
2022-10-13T22:56:31.987Z,40.67
2022-10-13T22:59:03.752Z,40.60
2022-10-13T23:01:30.857Z,41.53
2022-10-13T23:03:58.556Z,40.88
2022-10-13T23:06:30.160Z,40.85
2022-10-13T23:08:57.248Z,40.13
2022-10-13T23:11:24.264Z,41.33
2022-10-13T23:13:51.385Z,39.22
2022-10-13T23:16:19.895Z,38.72
2022-10-13T23:18:49.284Z,37.60
2022-10-13T23:21:17.543Z,38.65
2022-10-13T23:23:48.135Z,38.47
2022-10-13T23:26:16.858Z,37.15
2022-10-13T23:28:48.497Z,36.03
2022-10-13T23:31:18.391Z,36.00
2022-10-13T23:33:45.636Z,34.97
2022-10-13T23:36:20.492Z,35.42
2022-10-13T23:39:01.345Z,34.78
2022-10-13T23:41:28.543Z,35.08
2022-10-13T23:43:55.560Z,35.30
2022-10-13T23:46:22.712Z,34.53
2022-10-13T23:48:49.782Z,33.97
2022-10-13T23:51:20.856Z,34.05
2022-10-13T23:53:48.167Z,34.15
2022-10-13T23:56:15.184Z,33.00
2022-10-13T23:58:42.976Z,33.42
